sensor_id;sensor_type;location;lat;lon;timestamp;temperature;humidity
64924;HTU21D;51436;44.692;39.214;2022-08-07T00:00:08;21.29;69.18
64924;HTU21D;51436;44.692;39.214;2022-08-07T00:02:38;21.24;69.07
64924;HTU21D;51436;44.692;39.214;2022-08-07T00:05:04;21.21;69.06
64924;HTU21D;51436;44.692;39.214;2022-08-07T00:07:31;21.21;68.94
64924;HTU21D;51436;44.692;39.214;2022-08-07T00:09:57;21.18;68.89
64924;HTU21D;51436;44.692;39.214;2022-08-07T00:12:23;21.15;68.99
64924;HTU21D;51436;44.692;39.214;2022-08-07T00:14:50;21.15;69.08
64924;HTU21D;51436;44.692;39.214;2022-08-07T00:17:16;21.13;69.13
64924;HTU21D;51436;44.692;39.214;2022-08-07T00:19:42;21.10;69.06
64924;HTU21D;51436;44.692;39.214;2022-08-07T00:22:10;21.11;68.98
64924;HTU21D;51436;44.692;39.214;2022-08-07T00:24:36;21.07;69.16
64924;HTU21D;51436;44.692;39.214;2022-08-07T00:27:03;21.04;69.15
64924;HTU21D;51436;44.692;39.214;2022-08-07T00:29:29;21.04;69.17
64924;HTU21D;51436;44.692;39.214;2022-08-07T00:31:55;21.02;69.26
64924;HTU21D;51436;44.692;39.214;2022-08-07T00:34:27;21.02;69.09
64924;HTU21D;51436;44.692;39.214;2022-08-07T00:36:55;21.01;69.07
64924;HTU21D;51436;44.692;39.214;2022-08-07T00:39:22;20.98;69.15
64924;HTU21D;51436;44.692;39.214;2022-08-07T00:41:55;20.98;69.02
64924;HTU21D;51436;44.692;39.214;2022-08-07T00:44:23;20.96;69.13
64924;HTU21D;51436;44.692;39.214;2022-08-07T00:46:50;20.95;69.10
64924;HTU21D;51436;44.692;39.214;2022-08-07T00:49:17;20.93;69.17
64924;HTU21D;51436;44.692;39.214;2022-08-07T00:51:43;20.90;69.16
64924;HTU21D;51436;44.692;39.214;2022-08-07T00:54:11;20.90;69.28
64924;HTU21D;51436;44.692;39.214;2022-08-07T00:56:40;20.89;69.23
64924;HTU21D;51436;44.692;39.214;2022-08-07T00:59:07;20.91;69.13
64924;HTU21D;51436;44.692;39.214;2022-08-07T01:01:33;20.87;69.16
64924;HTU21D;51436;44.692;39.214;2022-08-07T01:04:04;20.81;69.29
64924;HTU21D;51436;44.692;39.214;2022-08-07T01:06:31;20.80;68.89
64924;HTU21D;51436;44.692;39.214;2022-08-07T01:08:59;20.71;69.38
64924;HTU21D;51436;44.692;39.214;2022-08-07T01:11:26;20.71;69.42
64924;HTU21D;51436;44.692;39.214;2022-08-07T01:13:52;20.75;69.29
64924;HTU21D;51436;44.692;39.214;2022-08-07T01:16:19;20.71;69.20
64924;HTU21D;51436;44.692;39.214;2022-08-07T01:18:45;20.65;69.33
64924;HTU21D;51436;44.692;39.214;2022-08-07T01:21:14;20.65;68.88
64924;HTU21D;51436;44.692;39.214;2022-08-07T01:23:43;20.59;69.00
64924;HTU21D;51436;44.692;39.214;2022-08-07T01:26:14;20.60;69.22
64924;HTU21D;51436;44.692;39.214;2022-08-07T01:28:45;20.61;69.11
64924;HTU21D;51436;44.692;39.214;2022-08-07T01:31:16;20.60;69.13
64924;HTU21D;51436;44.692;39.214;2022-08-07T01:33:46;20.54;69.26
64924;HTU21D;51436;44.692;39.214;2022-08-07T01:36:12;20.53;69.33
64924;HTU21D;51436;44.692;39.214;2022-08-07T01:38:41;20.54;69.14
64924;HTU21D;51436;44.692;39.214;2022-08-07T01:41:18;20.56;69.08
64924;HTU21D;51436;44.692;39.214;2022-08-07T01:43:49;20.50;69.08
64924;HTU21D;51436;44.692;39.214;2022-08-07T01:46:18;20.47;69.32
64924;HTU21D;51436;44.692;39.214;2022-08-07T01:48:46;20.48;69.25
64924;HTU21D;51436;44.692;39.214;2022-08-07T01:51:19;20.48;69.33
64924;HTU21D;51436;44.692;39.214;2022-08-07T01:53:50;20.46;69.16
64924;HTU21D;51436;44.692;39.214;2022-08-07T01:56:26;20.41;69.21
64924;HTU21D;51436;44.692;39.214;2022-08-07T01:59:25;20.39;69.25
64924;HTU21D;51436;44.692;39.214;2022-08-07T02:01:59;20.37;69.36
64924;HTU21D;51436;44.692;39.214;2022-08-07T02:04:31;20.39;69.29
64924;HTU21D;51436;44.692;39.214;2022-08-07T02:07:03;20.36;69.33
64924;HTU21D;51436;44.692;39.214;2022-08-07T02:09:31;20.34;69.33
64924;HTU21D;51436;44.692;39.214;2022-08-07T02:12:01;20.35;69.34
64924;HTU21D;51436;44.692;39.214;2022-08-07T02:14:51;20.31;69.39
64924;HTU21D;51436;44.692;39.214;2022-08-07T02:17:28;20.28;69.42
64924;HTU21D;51436;44.692;39.214;2022-08-07T02:19:56;20.30;69.50
64924;HTU21D;51436;44.692;39.214;2022-08-07T02:22:24;20.32;69.42
64924;HTU21D;51436;44.692;39.214;2022-08-07T02:24:53;20.36;69.31
64924;HTU21D;51436;44.692;39.214;2022-08-07T02:27:22;20.49;68.99
64924;HTU21D;51436;44.692;39.214;2022-08-07T02:29:51;20.75;68.39
64924;HTU21D;51436;44.692;39.214;2022-08-07T02:32:18;21.07;67.54
64924;HTU21D;51436;44.692;39.214;2022-08-07T02:34:47;21.42;66.60
64924;HTU21D;51436;44.692;39.214;2022-08-07T02:37:15;21.78;65.64
64924;HTU21D;51436;44.692;39.214;2022-08-07T02:39:43;22.16;64.78
64924;HTU21D;51436;44.692;39.214;2022-08-07T02:42:17;22.53;64.05
64924;HTU21D;51436;44.692;39.214;2022-08-07T02:44:49;22.92;63.22
64924;HTU21D;51436;44.692;39.214;2022-08-07T02:47:19;23.27;62.50
64924;HTU21D;51436;44.692;39.214;2022-08-07T02:49:49;23.61;61.76
64924;HTU21D;51436;44.692;39.214;2022-08-07T02:52:22;24.00;60.74
64924;HTU21D;51436;44.692;39.214;2022-08-07T02:54:51;24.27;59.99
64924;HTU21D;51436;44.692;39.214;2022-08-07T02:57:20;24.61;58.88
64924;HTU21D;51436;44.692;39.214;2022-08-07T02:59:48;24.86;57.97
64924;HTU21D;51436;44.692;39.214;2022-08-07T03:02:18;25.02;57.18
64924;HTU21D;51436;44.692;39.214;2022-08-07T03:04:47;24.86;57.51
64924;HTU21D;51436;44.692;39.214;2022-08-07T03:07:14;24.43;58.54
64924;HTU21D;51436;44.692;39.214;2022-08-07T03:09:46;24.08;59.57
64924;HTU21D;51436;44.692;39.214;2022-08-07T03:12:13;23.90;59.95
64924;HTU21D;51436;44.692;39.214;2022-08-07T03:14:41;23.77;60.18
64924;HTU21D;51436;44.692;39.214;2022-08-07T03:17:11;23.60;60.73
64924;HTU21D;51436;44.692;39.214;2022-08-07T03:19:39;23.52;60.89
64924;HTU21D;51436;44.692;39.214;2022-08-07T03:22:08;23.44;61.03
64924;HTU21D;51436;44.692;39.214;2022-08-07T03:24:35;23.43;61.10
64924;HTU21D;51436;44.692;39.214;2022-08-07T03:27:04;23.45;61.08
64924;HTU21D;51436;44.692;39.214;2022-08-07T03:29:44;23.50;60.84
64924;HTU21D;51436;44.692;39.214;2022-08-07T03:32:11;23.55;60.56
64924;HTU21D;51436;44.692;39.214;2022-08-07T03:34:43;23.57;60.59
64924;HTU21D;51436;44.692;39.214;2022-08-07T03:37:11;23.61;60.61
64924;HTU21D;51436;44.692;39.214;2022-08-07T03:39:38;23.70;60.45
64924;HTU21D;51436;44.692;39.214;2022-08-07T03:42:06;23.83;60.19
64924;HTU21D;51436;44.692;39.214;2022-08-07T03:44:35;23.94;59.95
64924;HTU21D;51436;44.692;39.214;2022-08-07T03:47:04;24.01;59.86
64924;HTU21D;51436;44.692;39.214;2022-08-07T03:49:31;24.13;59.68
64924;HTU21D;51436;44.692;39.214;2022-08-07T03:51:58;24.19;59.64
64924;HTU21D;51436;44.692;39.214;2022-08-07T03:54:26;24.29;59.60
64924;HTU21D;51436;44.692;39.214;2022-08-07T03:56:53;24.40;59.44
64924;HTU21D;51436;44.692;39.214;2022-08-07T03:59:20;24.48;59.32
64924;HTU21D;51436;44.692;39.214;2022-08-07T04:01:52;24.55;59.22
64924;HTU21D;51436;44.692;39.214;2022-08-07T04:04:22;24.63;59.20
64924;HTU21D;51436;44.692;39.214;2022-08-07T04:06:52;24.71;59.14
64924;HTU21D;51436;44.692;39.214;2022-08-07T04:09:21;24.79;59.10
64924;HTU21D;51436;44.692;39.214;2022-08-07T04:11:49;24.88;58.91
64924;HTU21D;51436;44.692;39.214;2022-08-07T04:14:16;24.97;58.93
64924;HTU21D;51436;44.692;39.214;2022-08-07T04:16:43;25.07;58.81
64924;HTU21D;51436;44.692;39.214;2022-08-07T04:19:11;25.16;58.72
64924;HTU21D;51436;44.692;39.214;2022-08-07T04:21:37;25.18;58.42
64924;HTU21D;51436;44.692;39.214;2022-08-07T04:24:04;25.20;58.44
64924;HTU21D;51436;44.692;39.214;2022-08-07T04:26:39;25.24;58.36
64924;HTU21D;51436;44.692;39.214;2022-08-07T04:29:07;25.31;58.21
64924;HTU21D;51436;44.692;39.214;2022-08-07T04:31:38;25.35;58.51
64924;HTU21D;51436;44.692;39.214;2022-08-07T04:34:15;25.36;58.51
64924;HTU21D;51436;44.692;39.214;2022-08-07T04:36:42;25.49;58.44
64924;HTU21D;51436;44.692;39.214;2022-08-07T04:39:09;25.57;58.13
64924;HTU21D;51436;44.692;39.214;2022-08-07T04:41:37;25.59;58.21
64924;HTU21D;51436;44.692;39.214;2022-08-07T04:44:03;25.58;57.95
64924;HTU21D;51436;44.692;39.214;2022-08-07T04:46:43;25.49;58.38
64924;HTU21D;51436;44.692;39.214;2022-08-07T04:52:20;25.47;58.15
64924;HTU21D;51436;44.692;39.214;2022-08-07T04:54:58;25.33;58.60
64924;HTU21D;51436;44.692;39.214;2022-08-07T05:00:50;25.35;58.58
64924;HTU21D;51436;44.692;39.214;2022-08-07T05:03:28;25.34;58.83
64924;HTU21D;51436;44.692;39.214;2022-08-07T05:08:49;25.48;58.68
64924;HTU21D;51436;44.692;39.214;2022-08-07T05:11:29;25.53;58.58
64924;HTU21D;51436;44.692;39.214;2022-08-07T05:14:19;25.51;58.63
64924;HTU21D;51436;44.692;39.214;2022-08-07T05:16:50;25.49;58.14
64924;HTU21D;51436;44.692;39.214;2022-08-07T05:19:20;25.48;58.22
64924;HTU21D;51436;44.692;39.214;2022-08-07T05:21:54;25.56;58.20
64924;HTU21D;51436;44.692;39.214;2022-08-07T05:24:21;25.63;58.09
64924;HTU21D;51436;44.692;39.214;2022-08-07T05:26:52;25.63;57.77
64924;HTU21D;51436;44.692;39.214;2022-08-07T05:29:21;25.60;58.13
64924;HTU21D;51436;44.692;39.214;2022-08-07T05:31:50;25.63;57.79
64924;HTU21D;51436;44.692;39.214;2022-08-07T05:34:22;25.66;57.51
64924;HTU21D;51436;44.692;39.214;2022-08-07T05:36:51;25.60;57.76
64924;HTU21D;51436;44.692;39.214;2022-08-07T05:39:38;25.62;57.85
64924;HTU21D;51436;44.692;39.214;2022-08-07T05:42:08;25.73;57.46
64924;HTU21D;51436;44.692;39.214;2022-08-07T05:44:38;25.72;57.26
64924;HTU21D;51436;44.692;39.214;2022-08-07T05:47:07;25.71;57.09
64924;HTU21D;51436;44.692;39.214;2022-08-07T05:49:35;25.76;57.01
64924;HTU21D;51436;44.692;39.214;2022-08-07T05:52:04;25.81;56.87
64924;HTU21D;51436;44.692;39.214;2022-08-07T05:54:31;25.87;56.74
64924;HTU21D;51436;44.692;39.214;2022-08-07T05:57:00;25.88;56.61
64924;HTU21D;51436;44.692;39.214;2022-08-07T05:59:31;25.93;56.65
64924;HTU21D;51436;44.692;39.214;2022-08-07T06:02:01;26.04;56.39
64924;HTU21D;51436;44.692;39.214;2022-08-07T06:04:31;26.16;56.04
64924;HTU21D;51436;44.692;39.214;2022-08-07T06:07:00;26.21;55.70
64924;HTU21D;51436;44.692;39.214;2022-08-07T06:09:34;26.24;55.68
64924;HTU21D;51436;44.692;39.214;2022-08-07T06:12:01;26.28;55.34
64924;HTU21D;51436;44.692;39.214;2022-08-07T06:14:28;26.37;55.55
64924;HTU21D;51436;44.692;39.214;2022-08-07T06:16:57;26.46;55.28
64924;HTU21D;51436;44.692;39.214;2022-08-07T06:19:29;26.48;54.69
64924;HTU21D;51436;44.692;39.214;2022-08-07T06:21:56;26.49;54.26
64924;HTU21D;51436;44.692;39.214;2022-08-07T06:24:23;26.50;54.05
64924;HTU21D;51436;44.692;39.214;2022-08-07T06:26:50;26.52;53.55
64924;HTU21D;51436;44.692;39.214;2022-08-07T06:29:16;26.58;53.57
64924;HTU21D;51436;44.692;39.214;2022-08-07T06:31:43;26.67;53.31
64924;HTU21D;51436;44.692;39.214;2022-08-07T06:34:12;26.73;53.19
64924;HTU21D;51436;44.692;39.214;2022-08-07T06:36:38;26.78;53.18
64924;HTU21D;51436;44.692;39.214;2022-08-07T06:39:05;26.84;52.88
64924;HTU21D;51436;44.692;39.214;2022-08-07T06:41:39;26.93;53.06
64924;HTU21D;51436;44.692;39.214;2022-08-07T06:44:10;26.99;52.90
64924;HTU21D;51436;44.692;39.214;2022-08-07T06:46:39;27.06;52.92
64924;HTU21D;51436;44.692;39.214;2022-08-07T06:49:05;27.05;52.49
64924;HTU21D;51436;44.692;39.214;2022-08-07T06:51:36;27.00;52.36
64924;HTU21D;51436;44.692;39.214;2022-08-07T06:54:08;27.06;52.04
64924;HTU21D;51436;44.692;39.214;2022-08-07T06:56:37;27.12;52.47
64924;HTU21D;51436;44.692;39.214;2022-08-07T06:59:14;27.21;52.47
64924;HTU21D;51436;44.692;39.214;2022-08-07T07:01:46;27.24;52.33
64924;HTU21D;51436;44.692;39.214;2022-08-07T07:04:13;27.22;51.93
64924;HTU21D;51436;44.692;39.214;2022-08-07T07:06:42;27.26;51.83
64924;HTU21D;51436;44.692;39.214;2022-08-07T07:09:23;27.25;51.96
64924;HTU21D;51436;44.692;39.214;2022-08-07T07:14:28;27.41;52.14
64924;HTU21D;51436;44.692;39.214;2022-08-07T07:16:58;27.53;52.01
64924;HTU21D;51436;44.692;39.214;2022-08-07T07:19:34;27.60;51.97
64924;HTU21D;51436;44.692;39.214;2022-08-07T07:22:02;27.63;51.46
64924;HTU21D;51436;44.692;39.214;2022-08-07T07:24:28;27.64;51.54
64924;HTU21D;51436;44.692;39.214;2022-08-07T07:26:57;27.75;51.39
64924;HTU21D;51436;44.692;39.214;2022-08-07T07:29:26;27.83;51.18
64924;HTU21D;51436;44.692;39.214;2022-08-07T07:31:56;27.84;51.24
64924;HTU21D;51436;44.692;39.214;2022-08-07T07:34:28;27.86;51.02
64924;HTU21D;51436;44.692;39.214;2022-08-07T07:36:59;27.89;51.02
64924;HTU21D;51436;44.692;39.214;2022-08-07T07:39:26;27.97;50.90
64924;HTU21D;51436;44.692;39.214;2022-08-07T07:41:55;28.05;50.68
64924;HTU21D;51436;44.692;39.214;2022-08-07T07:44:23;28.10;51.14
64924;HTU21D;51436;44.692;39.214;2022-08-07T07:46:53;28.16;50.60
64924;HTU21D;51436;44.692;39.214;2022-08-07T07:49:21;28.14;50.17
64924;HTU21D;51436;44.692;39.214;2022-08-07T07:51:48;28.13;50.16
64924;HTU21D;51436;44.692;39.214;2022-08-07T07:54:16;28.12;50.02
64924;HTU21D;51436;44.692;39.214;2022-08-07T07:56:44;28.15;49.85
64924;HTU21D;51436;44.692;39.214;2022-08-07T07:59:12;28.19;49.48
64924;HTU21D;51436;44.692;39.214;2022-08-07T08:01:41;28.23;49.72
64924;HTU21D;51436;44.692;39.214;2022-08-07T08:04:09;28.26;48.81
64924;HTU21D;51436;44.692;39.214;2022-08-07T08:06:38;28.26;48.79
64924;HTU21D;51436;44.692;39.214;2022-08-07T08:09:07;28.26;48.49
64924;HTU21D;51436;44.692;39.214;2022-08-07T08:11:34;28.21;47.96
64924;HTU21D;51436;44.692;39.214;2022-08-07T08:14:01;28.25;48.24
64924;HTU21D;51436;44.692;39.214;2022-08-07T08:16:38;28.28;47.60
64924;HTU21D;51436;44.692;39.214;2022-08-07T08:19:08;28.32;47.48
64924;HTU21D;51436;44.692;39.214;2022-08-07T08:21:38;28.27;47.09
64924;HTU21D;51436;44.692;39.214;2022-08-07T08:24:25;28.24;46.74
64924;HTU21D;51436;44.692;39.214;2022-08-07T08:27:12;28.25;46.47
64924;HTU21D;51436;44.692;39.214;2022-08-07T08:29:42;28.28;46.44
64924;HTU21D;51436;44.692;39.214;2022-08-07T08:32:11;28.34;46.41
64924;HTU21D;51436;44.692;39.214;2022-08-07T08:34:40;28.41;46.12
64924;HTU21D;51436;44.692;39.214;2022-08-07T08:37:08;28.48;46.11
64924;HTU21D;51436;44.692;39.214;2022-08-07T08:39:35;28.48;46.06
64924;HTU21D;51436;44.692;39.214;2022-08-07T08:44:55;28.56;46.44
64924;HTU21D;51436;44.692;39.214;2022-08-07T08:55:37;28.94;45.85
64924;HTU21D;51436;44.692;39.214;2022-08-07T08:58:16;29.02;45.90
64924;HTU21D;51436;44.692;39.214;2022-08-07T09:00:51;29.04;45.88
64924;HTU21D;51436;44.692;39.214;2022-08-07T09:03:24;29.08;46.13
64924;HTU21D;51436;44.692;39.214;2022-08-07T09:06:00;28.95;46.64
64924;HTU21D;51436;44.692;39.214;2022-08-07T09:11:10;28.48;46.20
64924;HTU21D;51436;44.692;39.214;2022-08-07T09:25:03;28.50;46.85
64924;HTU21D;51436;44.692;39.214;2022-08-07T09:30:10;28.86;46.64
64924;HTU21D;51436;44.692;39.214;2022-08-07T09:35:44;29.42;46.09
64924;HTU21D;51436;44.692;39.214;2022-08-07T09:38:23;29.39;46.12
64924;HTU21D;51436;44.692;39.214;2022-08-07T09:41:12;29.12;46.02
64924;HTU21D;51436;44.692;39.214;2022-08-07T09:52:15;28.40;46.54
64924;HTU21D;51436;44.692;39.214;2022-08-07T09:54:46;28.31;46.51
64924;HTU21D;51436;44.692;39.214;2022-08-07T10:03:08;28.53;46.28
64924;HTU21D;51436;44.692;39.214;2022-08-07T10:09:03;28.90;46.06
64924;HTU21D;51436;44.692;39.214;2022-08-07T10:18:10;29.01;45.97
64924;HTU21D;51436;44.692;39.214;2022-08-07T10:23:29;29.19;45.69
64924;HTU21D;51436;44.692;39.214;2022-08-07T10:29:17;29.20;45.40
64924;HTU21D;51436;44.692;39.214;2022-08-07T10:35:14;28.93;45.53
64924;HTU21D;51436;44.692;39.214;2022-08-07T10:40:30;28.60;46.00
64924;HTU21D;51436;44.692;39.214;2022-08-07T10:43:09;28.54;45.82
64924;HTU21D;51436;44.692;39.214;2022-08-07T10:45:41;28.54;45.65
64924;HTU21D;51436;44.692;39.214;2022-08-07T10:49:09;28.70;45.75
64924;HTU21D;51436;44.692;39.214;2022-08-07T10:51:16;28.80;45.24
64924;HTU21D;51436;44.692;39.214;2022-08-07T10:53:54;28.95;45.08
64924;HTU21D;51436;44.692;39.214;2022-08-07T10:56:29;28.99;44.80
64924;HTU21D;51436;44.692;39.214;2022-08-07T11:02:17;29.06;45.27
64924;HTU21D;51436;44.692;39.214;2022-08-07T11:07:37;29.48;44.61
64924;HTU21D;51436;44.692;39.214;2022-08-07T11:10:17;29.53;44.45
64924;HTU21D;51436;44.692;39.214;2022-08-07T11:13:10;29.64;44.38
64924;HTU21D;51436;44.692;39.214;2022-08-07T11:15:39;29.64;44.22
64924;HTU21D;51436;44.692;39.214;2022-08-07T11:18:19;29.48;43.39
64924;HTU21D;51436;44.692;39.214;2022-08-07T11:21:03;29.23;44.20
64924;HTU21D;51436;44.692;39.214;2022-08-07T11:23:51;29.05;44.26
64924;HTU21D;51436;44.692;39.214;2022-08-07T11:27:14;29.04;43.68
64924;HTU21D;51436;44.692;39.214;2022-08-07T11:29:39;29.24;43.84
64924;HTU21D;51436;44.692;39.214;2022-08-07T11:32:16;29.44;43.35
64924;HTU21D;51436;44.692;39.214;2022-08-07T11:34:55;29.58;43.32
64924;HTU21D;51436;44.692;39.214;2022-08-07T11:42:55;29.73;43.48
64924;HTU21D;51436;44.692;39.214;2022-08-07T11:45:44;29.62;43.41
64924;HTU21D;51436;44.692;39.214;2022-08-07T11:59:42;29.74;42.84
64924;HTU21D;51436;44.692;39.214;2022-08-07T12:07:56;30.00;42.58
64924;HTU21D;51436;44.692;39.214;2022-08-07T12:10:36;29.95;43.03
64924;HTU21D;51436;44.692;39.214;2022-08-07T12:13:33;30.01;43.50
64924;HTU21D;51436;44.692;39.214;2022-08-07T12:16:10;30.08;43.29
64924;HTU21D;51436;44.692;39.214;2022-08-07T12:18:44;30.03;43.45
64924;HTU21D;51436;44.692;39.214;2022-08-07T12:21:36;29.86;43.61
64924;HTU21D;51436;44.692;39.214;2022-08-07T12:24:38;29.82;43.89
64924;HTU21D;51436;44.692;39.214;2022-08-07T12:27:28;29.94;43.55
64924;HTU21D;51436;44.692;39.214;2022-08-07T12:30:03;30.04;43.40
64924;HTU21D;51436;44.692;39.214;2022-08-07T12:35:11;29.78;43.28
64924;HTU21D;51436;44.692;39.214;2022-08-07T12:37:39;29.64;43.44
64924;HTU21D;51436;44.692;39.214;2022-08-07T12:40:07;29.67;44.03
64924;HTU21D;51436;44.692;39.214;2022-08-07T12:42:36;29.67;43.64
64924;HTU21D;51436;44.692;39.214;2022-08-07T12:45:11;29.58;43.87
64924;HTU21D;51436;44.692;39.214;2022-08-07T12:47:44;29.43;43.82
64924;HTU21D;51436;44.692;39.214;2022-08-07T12:50:21;29.29;44.25
64924;HTU21D;51436;44.692;39.214;2022-08-07T12:53:00;29.17;44.65
64924;HTU21D;51436;44.692;39.214;2022-08-07T12:55:34;29.06;44.69
64924;HTU21D;51436;44.692;39.214;2022-08-07T12:58:02;28.94;44.80
64924;HTU21D;51436;44.692;39.214;2022-08-07T13:01:08;28.85;45.19
64924;HTU21D;51436;44.692;39.214;2022-08-07T13:12:31;29.22;44.63
64924;HTU21D;51436;44.692;39.214;2022-08-07T13:21:13;29.59;43.77
64924;HTU21D;51436;44.692;39.214;2022-08-07T13:24:00;29.68;43.67
64924;HTU21D;51436;44.692;39.214;2022-08-07T13:26:59;29.75;43.93
64924;HTU21D;51436;44.692;39.214;2022-08-07T13:29:37;29.77;43.95
64924;HTU21D;51436;44.692;39.214;2022-08-07T13:32:28;29.59;44.12
64924;HTU21D;51436;44.692;39.214;2022-08-07T13:35:07;29.35;44.51
64924;HTU21D;51436;44.692;39.214;2022-08-07T13:38:16;29.17;44.93
64924;HTU21D;51436;44.692;39.214;2022-08-07T13:40:53;29.22;45.00
64924;HTU21D;51436;44.692;39.214;2022-08-07T13:43:23;29.32;44.68
64924;HTU21D;51436;44.692;39.214;2022-08-07T13:45:57;29.42;44.35
64924;HTU21D;51436;44.692;39.214;2022-08-07T13:48:25;29.43;44.55
64924;HTU21D;51436;44.692;39.214;2022-08-07T13:50:53;29.50;44.97
64924;HTU21D;51436;44.692;39.214;2022-08-07T13:53:34;29.60;44.75
64924;HTU21D;51436;44.692;39.214;2022-08-07T13:56:04;29.63;44.20
64924;HTU21D;51436;44.692;39.214;2022-08-07T13:58:39;29.62;43.70
64924;HTU21D;51436;44.692;39.214;2022-08-07T14:01:37;29.61;43.63
64924;HTU21D;51436;44.692;39.214;2022-08-07T14:04:13;29.60;42.98
64924;HTU21D;51436;44.692;39.214;2022-08-07T14:06:43;29.59;42.87
64924;HTU21D;51436;44.692;39.214;2022-08-07T14:09:19;29.61;42.49
64924;HTU21D;51436;44.692;39.214;2022-08-07T14:11:54;29.64;42.49
64924;HTU21D;51436;44.692;39.214;2022-08-07T14:14:27;29.64;42.35
64924;HTU21D;51436;44.692;39.214;2022-08-07T14:16:59;29.64;42.05
64924;HTU21D;51436;44.692;39.214;2022-08-07T14:19:35;29.66;42.33
64924;HTU21D;51436;44.692;39.214;2022-08-07T14:22:06;29.66;42.50
64924;HTU21D;51436;44.692;39.214;2022-08-07T14:24:38;29.66;42.56
64924;HTU21D;51436;44.692;39.214;2022-08-07T14:27:08;29.65;42.76
64924;HTU21D;51436;44.692;39.214;2022-08-07T14:29:40;29.65;42.76
64924;HTU21D;51436;44.692;39.214;2022-08-07T14:32:09;29.62;42.51
64924;HTU21D;51436;44.692;39.214;2022-08-07T14:34:39;29.61;42.68
64924;HTU21D;51436;44.692;39.214;2022-08-07T14:37:10;29.60;42.82
64924;HTU21D;51436;44.692;39.214;2022-08-07T14:39:41;29.58;43.20
64924;HTU21D;51436;44.692;39.214;2022-08-07T14:42:12;29.53;43.06
64924;HTU21D;51436;44.692;39.214;2022-08-07T14:44:45;29.48;43.10
64924;HTU21D;51436;44.692;39.214;2022-08-07T14:47:16;29.43;43.27
64924;HTU21D;51436;44.692;39.214;2022-08-07T14:49:43;29.37;43.50
64924;HTU21D;51436;44.692;39.214;2022-08-07T14:52:10;29.31;43.61
64924;HTU21D;51436;44.692;39.214;2022-08-07T14:54:56;29.27;43.87
64924;HTU21D;51436;44.692;39.214;2022-08-07T14:57:24;29.21;43.81
64924;HTU21D;51436;44.692;39.214;2022-08-07T14:59:51;29.19;43.74
64924;HTU21D;51436;44.692;39.214;2022-08-07T15:02:22;29.16;43.71
64924;HTU21D;51436;44.692;39.214;2022-08-07T15:04:50;29.13;44.00
64924;HTU21D;51436;44.692;39.214;2022-08-07T15:07:21;29.08;44.00
64924;HTU21D;51436;44.692;39.214;2022-08-07T15:09:50;29.05;44.22
64924;HTU21D;51436;44.692;39.214;2022-08-07T15:12:35;28.98;44.41
64924;HTU21D;51436;44.692;39.214;2022-08-07T15:15:08;28.93;44.52
64924;HTU21D;51436;44.692;39.214;2022-08-07T15:17:41;28.90;44.56
64924;HTU21D;51436;44.692;39.214;2022-08-07T15:20:10;28.86;45.06
64924;HTU21D;51436;44.692;39.214;2022-08-07T15:22:46;28.79;45.15
64924;HTU21D;51436;44.692;39.214;2022-08-07T15:25:29;28.76;45.05
64924;HTU21D;51436;44.692;39.214;2022-08-07T15:28:01;28.72;45.30
64924;HTU21D;51436;44.692;39.214;2022-08-07T15:30:30;28.67;45.50
64924;HTU21D;51436;44.692;39.214;2022-08-07T15:32:59;28.62;45.64
64924;HTU21D;51436;44.692;39.214;2022-08-07T15:35:27;28.58;45.86
64924;HTU21D;51436;44.692;39.214;2022-08-07T15:37:59;28.52;46.09
64924;HTU21D;51436;44.692;39.214;2022-08-07T15:40:28;28.46;46.25
64924;HTU21D;51436;44.692;39.214;2022-08-07T15:43:02;28.43;46.42
64924;HTU21D;51436;44.692;39.214;2022-08-07T15:45:35;28.40;46.38
64924;HTU21D;51436;44.692;39.214;2022-08-07T15:50:37;28.31;46.47
64924;HTU21D;51436;44.692;39.214;2022-08-07T15:53:16;28.28;46.34
64924;HTU21D;51436;44.692;39.214;2022-08-07T15:55:54;28.26;46.41
64924;HTU21D;51436;44.692;39.214;2022-08-07T15:58:27;28.21;46.38
64924;HTU21D;51436;44.692;39.214;2022-08-07T16:00:57;28.15;46.59
64924;HTU21D;51436;44.692;39.214;2022-08-07T16:03:25;28.08;46.75
64924;HTU21D;51436;44.692;39.214;2022-08-07T16:05:52;28.04;46.80
64924;HTU21D;51436;44.692;39.214;2022-08-07T16:08:23;27.99;46.95
64924;HTU21D;51436;44.692;39.214;2022-08-07T16:11:01;27.94;46.99
64924;HTU21D;51436;44.692;39.214;2022-08-07T16:16:45;27.79;47.39
64924;HTU21D;51436;44.692;39.214;2022-08-07T16:24:54;27.54;47.92
64924;HTU21D;51436;44.692;39.214;2022-08-07T16:27:37;27.49;47.97
64924;HTU21D;51436;44.692;39.214;2022-08-07T16:30:08;27.44;48.08
64924;HTU21D;51436;44.692;39.214;2022-08-07T16:35:34;27.31;48.24
64924;HTU21D;51436;44.692;39.214;2022-08-07T16:38:24;27.24;48.31
64924;HTU21D;51436;44.692;39.214;2022-08-07T16:41:18;27.21;48.37
64924;HTU21D;51436;44.692;39.214;2022-08-07T16:44:15;27.14;48.48
64924;HTU21D;51436;44.692;39.214;2022-08-07T16:57:52;26.86;48.96
64924;HTU21D;51436;44.692;39.214;2022-08-07T17:00:40;26.81;49.15
64924;HTU21D;51436;44.692;39.214;2022-08-07T17:11:44;26.62;50.30
64924;HTU21D;51436;44.692;39.214;2022-08-07T17:14:19;26.54;50.47
64924;HTU21D;51436;44.692;39.214;2022-08-07T17:16:59;26.50;50.92
64924;HTU21D;51436;44.692;39.214;2022-08-07T17:19:44;26.41;51.27
64924;HTU21D;51436;44.692;39.214;2022-08-07T17:22:26;26.30;52.30
64924;HTU21D;51436;44.692;39.214;2022-08-07T17:25:13;26.20;52.72
64924;HTU21D;51436;44.692;39.214;2022-08-07T17:27:57;26.08;53.53
64924;HTU21D;51436;44.692;39.214;2022-08-07T17:30:29;25.96;54.35
64924;HTU21D;51436;44.692;39.214;2022-08-07T17:33:28;25.83;54.62
64924;HTU21D;51436;44.692;39.214;2022-08-07T17:36:10;25.69;55.14
64924;HTU21D;51436;44.692;39.214;2022-08-07T17:44:46;25.46;56.75
64924;HTU21D;51436;44.692;39.214;2022-08-07T17:50:49;25.28;56.59
64924;HTU21D;51436;44.692;39.214;2022-08-07T17:55:52;25.23;57.00
64924;HTU21D;51436;44.692;39.214;2022-08-07T17:58:48;25.19;57.26
64924;HTU21D;51436;44.692;39.214;2022-08-07T18:01:24;25.14;57.74
64924;HTU21D;51436;44.692;39.214;2022-08-07T18:06:51;25.02;58.56
64924;HTU21D;51436;44.692;39.214;2022-08-07T18:09:25;24.95;59.11
64924;HTU21D;51436;44.692;39.214;2022-08-07T18:12:13;24.88;59.09
64924;HTU21D;51436;44.692;39.214;2022-08-07T18:15:11;24.78;59.28
64924;HTU21D;51436;44.692;39.214;2022-08-07T18:17:55;24.70;59.70
64924;HTU21D;51436;44.692;39.214;2022-08-07T18:20:27;24.64;60.29
64924;HTU21D;51436;44.692;39.214;2022-08-07T18:23:04;24.59;60.41
64924;HTU21D;51436;44.692;39.214;2022-08-07T18:25:32;24.54;60.86
64924;HTU21D;51436;44.692;39.214;2022-08-07T18:28:18;24.51;61.04
64924;HTU21D;51436;44.692;39.214;2022-08-07T18:31:03;24.47;60.93